createdAt,value
2023-03-21T00:04:11.207Z,12.52
2023-03-21T00:06:37.565Z,12.57
2023-03-21T00:09:03.894Z,13.60
2023-03-21T00:11:30.191Z,13.18
2023-03-21T00:13:56.513Z,13.00
2023-03-21T00:16:25.548Z,13.25
2023-03-21T00:19:06.811Z,12.82
2023-03-21T00:21:48.827Z,14.35
2023-03-21T00:24:20.020Z,13.70
2023-03-21T00:26:46.340Z,13.00
2023-03-21T00:29:12.693Z,13.05
2023-03-21T00:31:39.037Z,13.27
2023-03-21T00:34:05.442Z,12.57
2023-03-21T00:36:32.093Z,14.23
2023-03-21T00:38:58.517Z,12.52
2023-03-21T00:41:40.994Z,13.70
2023-03-21T00:44:09.919Z,13.15
2023-03-21T00:46:47.011Z,13.18
2023-03-21T00:49:17.938Z,14.20
2023-03-21T00:51:44.254Z,13.90
2023-03-21T00:54:12.278Z,13.57
2023-03-21T00:56:38.753Z,13.43
2023-03-21T00:59:05.079Z,14.18
2023-03-21T01:01:31.503Z,14.20
2023-03-21T01:03:59.233Z,14.88
2023-03-21T01:06:25.543Z,14.65
2023-03-21T01:08:53.421Z,14.63
2023-03-21T01:11:26.588Z,14.55
2023-03-21T01:13:59.828Z,15.65
2023-03-21T01:16:34.234Z,15.30
2023-03-21T01:19:02.103Z,15.68
2023-03-21T01:21:31.576Z,16.25
2023-03-21T01:23:57.932Z,17.02
2023-03-21T01:26:24.578Z,15.43
2023-03-21T01:28:50.922Z,17.00
2023-03-21T01:31:17.934Z,16.40
2023-03-21T01:33:44.863Z,17.80
2023-03-21T01:36:17.958Z,16.67
2023-03-21T01:38:45.584Z,17.20
2023-03-21T01:41:31.140Z,16.70
2023-03-21T01:44:09.990Z,17.77
2023-03-21T01:46:51.570Z,18.63
2023-03-21T01:49:32.349Z,18.08
2023-03-21T01:52:11.448Z,18.83
2023-03-21T01:54:40.902Z,18.27
2023-03-21T01:57:13.619Z,19.08
2023-03-21T01:59:46.062Z,19.23
2023-03-21T02:02:18.914Z,20.30
2023-03-21T02:04:45.245Z,19.92
2023-03-21T02:07:17.888Z,19.65
2023-03-21T02:09:48.656Z,19.95
2023-03-21T02:12:14.998Z,19.95
2023-03-21T02:14:42.553Z,20.20
2023-03-21T02:17:27.704Z,19.98
2023-03-21T02:20:02.762Z,20.50
2023-03-21T02:22:47.414Z,21.77
2023-03-21T02:25:26.684Z,21.75
2023-03-21T02:27:59.672Z,20.38
2023-03-21T02:31:04.765Z,20.98
2023-03-21T02:33:55.969Z,22.17
2023-03-21T02:36:28.141Z,21.67
2023-03-21T02:39:23.748Z,22.60
2023-03-21T02:42:11.333Z,22.73
2023-03-21T02:44:44.232Z,23.00
2023-03-21T02:47:21.981Z,24.67
2023-03-21T02:49:57.928Z,23.58
2023-03-21T02:52:38.720Z,23.80
2023-03-21T02:55:10.536Z,23.58
2023-03-21T02:57:42.673Z,24.20
2023-03-21T03:00:16.952Z,23.85
2023-03-21T03:02:44.149Z,25.10
2023-03-21T03:05:21.896Z,24.00
2023-03-21T03:08:26.628Z,24.10
2023-03-21T03:10:58.633Z,25.92
2023-03-21T03:13:35.595Z,24.20
2023-03-21T03:16:11.259Z,26.27
2023-03-21T03:18:49.609Z,26.27
2023-03-21T03:21:32.256Z,26.38
2023-03-21T03:24:19.954Z,27.85
2023-03-21T03:27:07.802Z,26.35
2023-03-21T03:29:35.768Z,26.50
2023-03-21T03:32:06.149Z,27.67
2023-03-21T03:34:37.306Z,27.90
2023-03-21T03:37:05.192Z,28.85
2023-03-21T03:39:39.893Z,28.30
2023-03-21T03:42:27.212Z,28.02
2023-03-21T03:44:55.529Z,27.35
2023-03-21T03:47:39.925Z,29.38
2023-03-21T03:50:23.886Z,29.58
2023-03-21T03:52:57.463Z,29.60
2023-03-21T03:57:53.782Z,28.95
2023-03-21T04:00:20.597Z,31.13
2023-03-21T04:02:47.107Z,28.77
2023-03-21T04:05:13.702Z,30.45
2023-03-21T04:07:40.019Z,29.27
2023-03-21T04:10:06.762Z,31.80
2023-03-21T04:12:33.098Z,28.88
2023-03-21T04:15:09.477Z,30.48
2023-03-21T04:17:36.813Z,30.83
2023-03-21T04:20:11.325Z,29.65
2023-03-21T04:22:39.501Z,30.60
2023-03-21T04:25:06.381Z,29.90
2023-03-21T04:27:32.806Z,29.40
2023-03-21T04:29:59.584Z,29.50
2023-03-21T04:32:27.328Z,29.85
2023-03-21T04:34:53.653Z,28.65
2023-03-21T04:37:21.862Z,28.52
2023-03-21T04:39:48.228Z,28.08
2023-03-21T04:42:16.004Z,28.38
2023-03-21T04:44:42.302Z,26.65
2023-03-21T04:47:08.702Z,25.85
2023-03-21T04:49:34.996Z,25.92
2023-03-21T04:52:01.343Z,25.30
2023-03-21T04:54:27.696Z,24.90
2023-03-21T04:56:54.031Z,23.10
2023-03-21T04:59:20.452Z,22.55
2023-03-21T05:01:46.790Z,23.25
2023-03-21T05:04:14.216Z,21.85
2023-03-21T05:06:41.401Z,22.63
2023-03-21T05:09:07.898Z,21.20
2023-03-21T05:11:36.674Z,20.60
2023-03-21T05:14:07.760Z,20.25
2023-03-21T05:16:35.529Z,19.15
2023-03-21T05:19:03.159Z,19.63
2023-03-21T05:21:33.692Z,19.48
2023-03-21T05:24:00.721Z,19.40
2023-03-21T05:26:27.032Z,20.25
2023-03-21T05:28:53.341Z,20.35
2023-03-21T05:31:20.117Z,20.05
2023-03-21T05:33:47.577Z,19.50
2023-03-21T05:36:14.634Z,20.33
2023-03-21T05:38:41.188Z,20.83
2023-03-21T05:41:07.489Z,19.92
2023-03-21T05:43:33.886Z,20.48
2023-03-21T05:46:00.217Z,18.65
2023-03-21T05:48:26.584Z,20.48
2023-03-21T05:50:53.735Z,20.08
2023-03-21T05:53:21.421Z,19.25
2023-03-21T05:55:49.166Z,19.98
2023-03-21T05:58:15.498Z,19.25
2023-03-21T06:00:41.792Z,19.98
2023-03-21T06:03:08.127Z,19.02
2023-03-21T06:05:34.483Z,18.35
2023-03-21T06:08:00.794Z,17.90
2023-03-21T06:10:27.241Z,18.13
2023-03-21T06:12:53.598Z,18.10
2023-03-21T06:15:20.358Z,17.48
2023-03-21T06:17:46.684Z,19.02
2023-03-21T06:20:13.572Z,18.85
2023-03-21T06:22:39.957Z,19.23
2023-03-21T06:25:07.815Z,18.02
2023-03-21T06:27:35.280Z,17.70
2023-03-21T06:30:01.738Z,17.83
2023-03-21T06:32:28.247Z,16.63
2023-03-21T06:34:54.763Z,17.25
2023-03-21T06:37:21.090Z,17.13
2023-03-21T06:39:47.416Z,16.88
2023-03-21T06:42:14.569Z,16.35
2023-03-21T06:44:41.353Z,16.30
2023-03-21T06:47:08.125Z,16.83
2023-03-21T06:49:34.601Z,16.08
2023-03-21T06:52:00.984Z,16.08
2023-03-21T06:54:27.289Z,16.38
2023-03-21T06:56:53.606Z,16.15
2023-03-21T06:59:19.918Z,15.48
2023-03-21T07:01:46.246Z,15.18
2023-03-21T07:04:12.636Z,14.43
2023-03-21T07:06:39.042Z,15.18
2023-03-21T07:09:05.857Z,16.65
2023-03-21T07:11:32.557Z,14.88
2023-03-21T07:13:59.049Z,15.30
2023-03-21T07:16:25.417Z,14.35
2023-03-21T07:18:52.032Z,15.02
2023-03-21T07:21:18.368Z,14.88
2023-03-21T07:23:44.698Z,14.77
2023-03-21T07:26:10.988Z,13.60
2023-03-21T07:28:37.316Z,14.98
2023-03-21T07:31:06.173Z,15.48
2023-03-21T07:33:33.463Z,15.63
2023-03-21T07:36:00.315Z,14.93
2023-03-21T07:38:27.561Z,15.15
2023-03-21T07:40:53.888Z,14.52
2023-03-21T07:43:20.660Z,15.32
2023-03-21T07:45:47.217Z,15.15
2023-03-21T07:48:14.127Z,14.20
2023-03-21T07:50:40.933Z,15.20
2023-03-21T07:53:07.874Z,14.95
2023-03-21T07:55:34.260Z,14.77
2023-03-21T07:58:02.419Z,14.95
2023-03-21T08:00:29.003Z,14.43
2023-03-21T08:02:58.877Z,15.48
2023-03-21T08:05:33.659Z,14.95
2023-03-21T08:08:00.708Z,15.13
2023-03-21T08:10:27.913Z,15.10
2023-03-21T08:12:54.432Z,14.25
2023-03-21T08:15:20.993Z,15.13
2023-03-21T08:17:47.478Z,14.65
2023-03-21T08:20:17.322Z,15.75
2023-03-21T08:22:43.956Z,15.35
2023-03-21T08:25:12.107Z,15.32
2023-03-21T08:27:38.456Z,15.95
2023-03-21T08:30:05.228Z,15.50
2023-03-21T08:32:31.579Z,16.30
2023-03-21T08:34:59.961Z,15.05
2023-03-21T08:37:26.746Z,15.00
2023-03-21T08:39:53.127Z,16.45
2023-03-21T08:42:20.559Z,15.95
2023-03-21T08:44:46.871Z,15.98
2023-03-21T08:47:13.269Z,15.15
2023-03-21T08:49:39.810Z,15.55
2023-03-21T08:52:06.127Z,15.07
2023-03-21T08:54:32.778Z,15.82
2023-03-21T08:56:59.081Z,15.27
2023-03-21T08:59:25.488Z,14.70
2023-03-21T09:01:51.854Z,16.80
2023-03-21T09:04:18.204Z,15.15
2023-03-21T09:06:44.859Z,16.48
2023-03-21T09:09:12.065Z,16.65
2023-03-21T09:11:38.632Z,14.82
2023-03-21T09:14:05.221Z,15.15
2023-03-21T09:16:31.750Z,17.50
2023-03-21T09:18:58.330Z,15.73
2023-03-21T09:21:27.373Z,15.35
2023-03-21T09:23:55.213Z,15.52
2023-03-21T09:26:23.261Z,15.93
2023-03-21T09:28:49.773Z,15.68
2023-03-21T09:31:17.792Z,17.50
2023-03-21T09:33:44.124Z,16.60
2023-03-21T09:36:11.403Z,16.20
2023-03-21T09:38:37.810Z,16.85
2023-03-21T09:41:22.827Z,15.77
2023-03-21T09:44:10.686Z,16.05
2023-03-21T09:46:58.076Z,16.23
2023-03-21T09:49:31.575Z,15.85
2023-03-21T09:52:04.981Z,16.30
2023-03-21T09:54:35.667Z,16.85
2023-03-21T09:57:35.838Z,17.60
2023-03-21T10:00:06.811Z,16.80
2023-03-21T10:02:40.403Z,16.58
2023-03-21T10:05:25.335Z,15.15
2023-03-21T10:08:08.598Z,15.13
2023-03-21T10:10:39.386Z,14.82
2023-03-21T10:13:15.376Z,14.25
2023-03-21T10:15:41.685Z,16.05
2023-03-21T10:18:18.971Z,15.30
2023-03-21T10:20:45.428Z,15.00
2023-03-21T10:23:14.850Z,14.25
2023-03-21T10:26:01.886Z,14.40
2023-03-21T10:28:39.418Z,15.10
2023-03-21T10:31:21.096Z,15.63
2023-03-21T10:33:50.404Z,15.32
2023-03-21T10:36:23.315Z,13.55
2023-03-21T10:38:54.416Z,14.55
2023-03-21T10:41:21.173Z,13.57
2023-03-21T10:44:05.220Z,14.38
2023-03-21T10:46:33.466Z,13.90
2023-03-21T10:49:01.236Z,14.13
2023-03-21T10:51:33.475Z,14.10
2023-03-21T10:54:06.367Z,12.15
2023-03-21T10:56:37.762Z,13.13
2023-03-21T10:59:06.790Z,12.73
2023-03-21T11:01:43.690Z,12.50
2023-03-21T11:04:16.143Z,12.90
2023-03-21T11:06:45.976Z,13.38
2023-03-21T11:09:18.524Z,12.23
2023-03-21T11:11:55.536Z,12.25
2023-03-21T11:14:36.586Z,12.13
2023-03-21T11:17:19.220Z,11.55
2023-03-21T11:20:01.953Z,12.45
2023-03-21T11:22:39.419Z,13.02
2023-03-21T11:25:08.774Z,12.68
2023-03-21T11:27:35.414Z,13.15
2023-03-21T11:30:04.686Z,12.07
2023-03-21T11:32:34.636Z,11.68
2023-03-21T11:35:05.539Z,12.80
2023-03-21T11:37:36.329Z,12.35
2023-03-21T11:40:18.740Z,13.05
2023-03-21T11:42:48.038Z,12.55
2023-03-21T11:45:34.915Z,10.93
2023-03-21T11:48:13.962Z,10.05
2023-03-21T11:50:44.807Z,10.90
2023-03-21T11:53:25.755Z,11.15
2023-03-21T11:56:18.625Z,10.85
2023-03-21T11:59:15.922Z,11.13
2023-03-21T12:02:01.066Z,10.80
2023-03-21T12:04:39.337Z,10.80
2023-03-21T12:07:27.502Z,10.18
2023-03-21T12:10:16.524Z,11.77
2023-03-21T12:13:19.039Z,10.40
2023-03-21T12:15:56.275Z,10.90
2023-03-21T12:19:04.437Z,11.32
2023-03-21T12:21:58.446Z,11.07
2023-03-21T12:24:31.449Z,12.43
2023-03-21T12:27:13.080Z,10.60
2023-03-21T12:30:24.509Z,11.13
2023-03-21T12:33:09.861Z,11.45
2023-03-21T12:35:59.792Z,10.45
2023-03-21T12:38:42.621Z,11.43
2023-03-21T12:41:22.586Z,10.45
2023-03-21T12:43:53.423Z,10.90
2023-03-21T12:46:23.958Z,10.15
2023-03-21T12:48:59.060Z,10.02
2023-03-21T12:51:36.876Z,10.20
2023-03-21T12:54:10.690Z,9.98
2023-03-21T12:56:44.807Z,10.80
2023-03-21T12:59:20.564Z,10.15
2023-03-21T13:01:50.384Z,10.00
2023-03-21T13:04:55.071Z,10.48
2023-03-21T13:07:23.574Z,10.07
2023-03-21T13:09:49.920Z,9.45
2023-03-21T13:12:48.166Z,10.60
2023-03-21T13:15:26.584Z,10.43
2023-03-21T13:17:59.206Z,9.50
2023-03-21T13:20:46.836Z,10.38
2023-03-21T13:23:13.995Z,9.18
2023-03-21T13:25:48.056Z,9.18
2023-03-21T13:28:27.035Z,8.73
2023-03-21T13:30:53.801Z,9.02
2023-03-21T13:33:29.369Z,9.00
2023-03-21T13:36:05.509Z,8.50
2023-03-21T13:38:34.515Z,7.82
2023-03-21T13:41:23.045Z,7.72
2023-03-21T13:43:55.731Z,8.38
2023-03-21T13:46:24.933Z,8.00
2023-03-21T13:49:00.178Z,8.00
2023-03-21T13:51:50.404Z,8.05
2023-03-21T13:54:22.165Z,8.10
2023-03-21T13:56:51.197Z,6.85
2023-03-21T13:59:38.911Z,7.70
2023-03-21T14:02:29.843Z,7.30
2023-03-21T14:05:06.955Z,6.93
2023-03-21T14:07:37.085Z,7.07
2023-03-21T14:10:25.708Z,6.57
2023-03-21T14:12:53.157Z,6.47
2023-03-21T14:15:23.832Z,6.25
2023-03-21T14:17:51.658Z,6.13
2023-03-21T14:20:25.559Z,5.45
2023-03-21T14:22:52.555Z,5.23
2023-03-21T14:25:21.444Z,6.05
2023-03-21T14:27:53.810Z,5.88
2023-03-21T14:30:41.525Z,5.57
2023-03-21T14:33:16.707Z,5.50
2023-03-21T14:35:46.069Z,5.97
2023-03-21T14:38:24.288Z,5.53
2023-03-21T14:40:53.364Z,5.78
2023-03-21T14:43:21.894Z,5.80
2023-03-21T14:45:51.161Z,6.40
2023-03-21T14:48:17.571Z,5.80
2023-03-21T14:50:52.263Z,6.45
2023-03-21T14:53:25.739Z,6.78
2023-03-21T14:55:57.691Z,5.53
2023-03-21T14:58:24.853Z,5.72
2023-03-21T15:00:52.479Z,6.25
2023-03-21T15:03:22.024Z,6.35
2023-03-21T15:05:48.470Z,6.35
2023-03-21T15:08:18.670Z,6.10
2023-03-21T15:11:07.752Z,6.30
2023-03-21T15:13:37.512Z,6.20
2023-03-21T15:16:04.735Z,5.80
2023-03-21T15:18:34.615Z,5.55
2023-03-21T15:21:24.846Z,5.97
2023-03-21T15:23:55.100Z,5.28
2023-03-21T15:26:25.404Z,5.28
2023-03-21T15:28:57.620Z,5.22
2023-03-21T15:31:34.532Z,5.38
2023-03-21T15:34:01.349Z,4.97
2023-03-21T15:36:33.136Z,5.07
2023-03-21T15:39:05.451Z,4.15
2023-03-21T15:41:33.212Z,4.63
2023-03-21T15:43:59.469Z,4.57
2023-03-21T15:46:44.203Z,3.80
2023-03-21T15:49:13.514Z,4.13
2023-03-21T15:51:53.467Z,4.43
2023-03-21T15:54:42.025Z,4.00
2023-03-21T15:57:30.268Z,3.45
2023-03-21T16:00:13.753Z,3.67
2023-03-21T16:02:41.849Z,3.72
2023-03-21T16:05:30.816Z,3.30
2023-03-21T16:08:19.326Z,3.25
2023-03-21T16:10:45.658Z,3.47
2023-03-21T16:13:12.452Z,3.47
2023-03-21T16:15:39.050Z,3.60
2023-03-21T16:18:07.685Z,3.15
2023-03-21T16:20:39.229Z,3.22
2023-03-21T16:23:06.280Z,3.10
2023-03-21T16:25:32.971Z,2.75
2023-03-21T16:27:59.380Z,3.08
2023-03-21T16:30:25.789Z,3.15
2023-03-21T16:32:52.070Z,3.10
2023-03-21T16:35:20.576Z,2.47
2023-03-21T16:37:47.982Z,2.40
2023-03-21T16:40:37.332Z,2.42
2023-03-21T16:43:04.052Z,2.70
2023-03-21T16:45:30.441Z,2.55
2023-03-21T16:47:57.954Z,2.47
2023-03-21T16:50:24.221Z,2.65
2023-03-21T16:52:50.533Z,2.50
2023-03-21T16:55:16.908Z,2.60
2023-03-21T16:57:44.589Z,2.80
2023-03-21T17:00:14.126Z,3.15
2023-03-21T17:02:40.445Z,3.17
2023-03-21T17:05:06.887Z,3.00
2023-03-21T17:07:33.305Z,2.55
2023-03-21T17:09:59.648Z,3.20
2023-03-21T17:12:26.051Z,3.10
2023-03-21T17:14:52.360Z,2.95
2023-03-21T17:17:18.680Z,3.05
2023-03-21T17:19:44.988Z,3.25
2023-03-21T17:22:13.391Z,3.00
2023-03-21T17:24:40.812Z,3.10
2023-03-21T17:27:11.274Z,3.10
2023-03-21T17:29:37.607Z,3.50
2023-03-21T17:32:04.014Z,2.80
2023-03-21T17:34:30.298Z,3.47
2023-03-21T17:36:56.639Z,2.75
2023-03-21T17:39:25.010Z,3.45
2023-03-21T17:41:52.696Z,2.85
2023-03-21T17:44:19.482Z,3.00
2023-03-21T17:46:45.842Z,3.45
2023-03-21T17:49:16.483Z,3.53
2023-03-21T17:51:43.407Z,3.28
2023-03-21T17:54:09.745Z,3.15
2023-03-21T17:56:36.431Z,3.53
2023-03-21T17:59:07.722Z,3.47
2023-03-21T18:01:34.299Z,3.60
2023-03-21T18:04:00.983Z,3.55
2023-03-21T18:06:27.398Z,4.18
2023-03-21T18:08:54.833Z,3.47
2023-03-21T18:11:22.685Z,3.50
2023-03-21T18:13:49.021Z,3.63
2023-03-21T18:16:21.174Z,3.95
2023-03-21T18:18:47.860Z,3.28
2023-03-21T18:21:16.988Z,3.25
2023-03-21T18:23:45.429Z,3.58
2023-03-21T18:26:15.727Z,3.50
2023-03-21T18:28:42.057Z,3.75
2023-03-21T18:31:18.373Z,3.80
2023-03-21T18:33:48.100Z,3.90
2023-03-21T18:36:25.431Z,3.83
2023-03-21T18:38:54.066Z,3.55
2023-03-21T18:41:20.373Z,3.55
2023-03-21T18:44:11.407Z,3.67
2023-03-21T18:46:33.307Z,4.43
2023-03-21T18:49:19.964Z,3.97
2023-03-21T18:51:45.957Z,4.03
2023-03-21T18:54:12.553Z,3.95
2023-03-21T18:59:26.178Z,3.65
2023-03-21T19:01:52.540Z,4.03
2023-03-21T19:04:25.612Z,3.97
2023-03-21T19:06:56.242Z,4.15
2023-03-21T19:09:29.393Z,3.75
2023-03-21T19:11:58.539Z,4.07
2023-03-21T19:14:24.845Z,3.97
2023-03-21T19:19:37.593Z,4.45
2023-03-21T19:22:03.955Z,4.00
2023-03-21T19:24:30.296Z,4.38
2023-03-21T19:26:56.650Z,4.80
2023-03-21T19:29:23.042Z,4.82
2023-03-21T19:31:49.497Z,4.85
2023-03-21T19:34:15.801Z,4.80
2023-03-21T19:36:45.542Z,4.90
2023-03-21T19:39:15.593Z,5.10
2023-03-21T19:41:42.644Z,4.65
2023-03-21T19:44:09.001Z,5.25
2023-03-21T19:46:35.378Z,4.63
2023-03-21T19:49:01.742Z,4.75
2023-03-21T19:51:30.223Z,5.43
2023-03-21T19:54:04.149Z,5.00
2023-03-21T19:56:31.623Z,4.95
2023-03-21T19:58:58.660Z,5.10
2023-03-21T20:01:25.585Z,5.35
2023-03-21T20:03:52.109Z,5.95
2023-03-21T20:06:18.569Z,5.15
2023-03-21T20:11:31.808Z,5.75
2023-03-21T20:13:58.207Z,5.60
2023-03-21T20:16:24.644Z,5.68
2023-03-21T20:18:50.983Z,5.80
2023-03-21T20:21:21.497Z,5.60
2023-03-21T20:23:50.430Z,5.25
2023-03-21T20:26:17.051Z,5.50
2023-03-21T20:28:55.978Z,5.82
2023-03-21T20:31:29.711Z,5.70
2023-03-21T20:33:56.106Z,6.25
2023-03-21T20:36:38.816Z,5.90
2023-03-21T20:39:06.468Z,6.55
2023-03-21T20:41:32.812Z,6.07
2023-03-21T20:44:36.479Z,5.97
2023-03-21T20:46:45.592Z,6.30
2023-03-21T20:49:12.143Z,6.63
2023-03-21T20:52:45.939Z,6.07
2023-03-21T20:54:24.755Z,6.63
2023-03-21T20:56:51.050Z,6.88
2023-03-21T20:59:26.095Z,6.43
2023-03-21T21:01:55.129Z,6.75
2023-03-21T21:04:21.555Z,6.95
2023-03-21T21:06:48.606Z,7.32
2023-03-21T21:09:15.671Z,6.35
2023-03-21T21:14:28.390Z,6.90
2023-03-21T21:16:54.758Z,6.70
2023-03-21T21:19:21.157Z,6.65
2023-03-21T21:21:47.469Z,7.22
2023-03-21T21:24:14.785Z,7.35
2023-03-21T21:26:41.310Z,7.22
2023-03-21T21:29:07.630Z,7.07
2023-03-21T21:31:33.980Z,7.35
2023-03-21T21:34:00.732Z,7.60
2023-03-21T21:36:27.048Z,7.28
2023-03-21T21:38:53.349Z,8.05
2023-03-21T21:41:22.070Z,7.43
2023-03-21T21:43:48.592Z,7.63
2023-03-21T21:46:15.123Z,7.25
2023-03-21T21:48:42.335Z,7.50
2023-03-21T21:51:09.492Z,7.63
2023-03-21T21:53:36.624Z,7.63
2023-03-21T21:56:04.416Z,7.35
2023-03-21T21:58:30.711Z,7.80
2023-03-21T22:01:01.121Z,7.28
2023-03-21T22:03:27.794Z,7.78
2023-03-21T22:06:01.991Z,8.13
2023-03-21T22:08:28.383Z,7.82
2023-03-21T22:10:54.784Z,8.30
2023-03-21T22:13:22.100Z,7.50
2023-03-21T22:15:48.411Z,7.72
2023-03-21T22:18:14.704Z,7.82
2023-03-21T22:20:41.384Z,8.75
2023-03-21T22:23:07.779Z,7.40
2023-03-21T22:25:34.106Z,8.38
2023-03-21T22:28:00.489Z,7.88
2023-03-21T22:30:26.820Z,8.55
2023-03-21T22:33:08.059Z,8.70
2023-03-21T22:35:35.269Z,7.88
2023-03-21T22:38:01.615Z,7.95
2023-03-21T22:40:27.974Z,8.70
2023-03-21T22:42:54.269Z,8.55
2023-03-21T22:45:20.599Z,8.32
2023-03-21T22:47:46.973Z,8.77
2023-03-21T22:50:13.332Z,8.68
2023-03-21T22:52:39.630Z,9.18
2023-03-21T22:55:06.179Z,8.02
2023-03-21T22:57:32.506Z,8.18
2023-03-21T22:59:58.832Z,7.68
2023-03-21T23:02:25.244Z,8.45
2023-03-21T23:04:51.530Z,8.75
2023-03-21T23:07:17.862Z,8.25
2023-03-21T23:09:44.248Z,8.70
2023-03-21T23:12:10.581Z,8.27
2023-03-21T23:14:36.935Z,8.25
2023-03-21T23:17:03.354Z,8.05
2023-03-21T23:19:29.685Z,8.70
2023-03-21T23:21:56.323Z,7.63
2023-03-21T23:24:22.805Z,8.88
2023-03-21T23:26:49.214Z,8.05
2023-03-21T23:29:15.517Z,7.93
2023-03-21T23:31:41.917Z,8.05
2023-03-21T23:34:08.217Z,8.52
2023-03-21T23:36:34.709Z,8.18
2023-03-21T23:39:01.014Z,7.20
2023-03-21T23:41:27.406Z,8.05
2023-03-21T23:43:53.832Z,8.75
2023-03-21T23:46:20.224Z,7.30
2023-03-21T23:48:46.835Z,8.25
2023-03-21T23:51:15.545Z,8.88
2023-03-21T23:53:42.133Z,8.07
2023-03-21T23:56:18.455Z,7.82
2023-03-21T23:58:45.229Z,8.18
